createdAt,value
2023-06-30T00:03:35.071Z,99730.58
2023-06-30T00:08:38.275Z,99729.91
2023-06-30T00:13:41.385Z,99728.36
2023-06-30T00:18:44.604Z,99730.23
2023-06-30T00:23:48.012Z,99728.05
2023-06-30T00:28:51.327Z,99725.05
2023-06-30T00:33:54.543Z,99722.32
2023-06-30T00:38:57.660Z,99719.30
2023-06-30T00:44:00.757Z,99716.76
2023-06-30T00:49:03.871Z,99715.38
2023-06-30T00:54:07.084Z,99713.15
2023-06-30T00:59:10.289Z,99705.30
2023-06-30T01:04:24.979Z,99698.68
2023-06-30T01:09:34.003Z,99693.23
2023-06-30T01:14:38.924Z,99686.11
2023-06-30T01:19:46.350Z,99685.45
2023-06-30T01:24:52.770Z,99682.34
2023-06-30T01:29:55.980Z,99677.11
2023-06-30T01:34:59.027Z,99672.50
2023-06-30T01:40:02.407Z,99677.77
2023-06-30T01:45:07.211Z,99679.06
2023-06-30T01:50:11.176Z,99672.41
2023-06-30T01:55:14.294Z,99670.40
2023-06-30T02:00:17.610Z,99670.61
2023-06-30T02:05:20.723Z,99671.60
2023-06-30T02:10:23.828Z,99671.79
2023-06-30T02:15:26.935Z,99668.95
2023-06-30T02:20:29.936Z,99663.38
2023-06-30T02:25:33.048Z,99657.03
2023-06-30T02:30:36.072Z,99652.69
2023-06-30T02:35:39.647Z,99642.80
2023-06-30T02:40:42.783Z,99641.62
2023-06-30T02:45:46.156Z,99643.01
2023-06-30T02:50:49.613Z,99642.95
2023-06-30T02:55:52.726Z,99648.38
2023-06-30T03:00:57.877Z,99648.38
2023-06-30T03:06:01.086Z,99647.98
2023-06-30T03:11:04.215Z,99642.02
2023-06-30T03:16:08.435Z,99642.58
2023-06-30T03:21:11.648Z,99638.05
2023-06-30T03:26:15.470Z,99638.58
2023-06-30T03:31:18.620Z,99636.52
2023-06-30T03:36:21.690Z,99632.75
2023-06-30T03:41:24.695Z,99629.97
2023-06-30T03:46:27.769Z,99627.52
2023-06-30T03:51:30.909Z,99627.59
2023-06-30T03:56:34.023Z,99628.96
2023-06-30T04:01:38.526Z,99623.11
2023-06-30T04:06:41.572Z,99622.70
2023-06-30T04:11:44.687Z,99621.20
2023-06-30T04:16:47.912Z,99615.90
2023-06-30T04:21:51.306Z,99617.98
2023-06-30T04:26:54.427Z,99619.55
2023-06-30T04:31:57.602Z,99628.68
2023-06-30T04:37:00.741Z,99623.52
2023-06-30T04:42:04.585Z,99618.04
2023-06-30T04:47:07.781Z,99619.11
2023-06-30T04:52:11.095Z,99618.07
2023-06-30T04:57:14.203Z,99613.25
2023-06-30T05:02:17.230Z,99608.77
2023-06-30T05:07:20.859Z,99603.69
2023-06-30T05:12:24.166Z,99602.86
2023-06-30T05:17:27.317Z,99606.64
2023-06-30T05:22:30.465Z,99606.45
2023-06-30T05:27:33.492Z,99605.98
2023-06-30T05:32:36.721Z,99611.27
2023-06-30T05:37:39.891Z,99613.66
2023-06-30T05:42:42.998Z,99610.87
2023-06-30T05:47:46.127Z,99610.35
2023-06-30T05:52:49.897Z,99613.57
2023-06-30T05:57:53.160Z,99609.22
2023-06-30T06:02:56.615Z,99606.16
2023-06-30T06:07:59.985Z,99606.09
2023-06-30T06:13:03.078Z,99600.52
2023-06-30T06:18:06.431Z,99597.41
2023-06-30T06:23:09.630Z,99593.77
2023-06-30T06:28:12.828Z,99589.73
2023-06-30T06:33:15.835Z,99581.73
2023-06-30T06:38:20.118Z,99587.54
2023-06-30T06:43:27.651Z,99595.42
2023-06-30T06:48:31.345Z,99596.05
2023-06-30T06:53:35.632Z,99595.42
2023-06-30T06:58:43.273Z,99603.40
2023-06-30T07:03:47.018Z,99601.38
2023-06-30T07:08:50.398Z,99591.87
2023-06-30T07:13:53.406Z,99586.40
2023-06-30T07:18:56.551Z,99586.80
2023-06-30T07:23:59.846Z,99585.55
2023-06-30T07:29:02.943Z,99583.35
2023-06-30T07:34:06.172Z,99577.67
2023-06-30T07:39:09.469Z,99585.14
2023-06-30T07:44:13.190Z,99586.87
2023-06-30T07:49:16.190Z,99581.69
2023-06-30T07:54:19.395Z,99581.35
2023-06-30T07:59:23.017Z,99569.82
2023-06-30T08:04:26.475Z,99567.45
2023-06-30T08:09:29.648Z,99566.33
2023-06-30T08:14:32.858Z,99563.67
2023-06-30T08:19:47.174Z,99565.08
2023-06-30T08:24:52.713Z,99564.89
2023-06-30T08:29:55.733Z,99563.14
2023-06-30T08:34:58.899Z,99563.13
2023-06-30T08:40:02.328Z,99552.40
2023-06-30T08:45:06.488Z,99542.16
2023-06-30T08:50:10.241Z,99539.96
2023-06-30T08:55:13.984Z,99534.59
2023-06-30T09:00:17.795Z,99537.70
2023-06-30T09:05:26.192Z,99539.39
2023-06-30T09:10:35.323Z,99537.50
2023-06-30T09:15:41.371Z,99528.33
2023-06-30T09:20:44.663Z,99527.33
2023-06-30T09:25:48.511Z,99524.63
2023-06-30T09:30:52.061Z,99522.23
2023-06-30T09:35:57.638Z,99516.60
2023-06-30T09:41:04.631Z,99510.50
2023-06-30T09:46:07.741Z,99517.64
2023-06-30T09:51:11.157Z,99515.73
2023-06-30T09:56:24.264Z,99515.52
2023-06-30T10:01:27.465Z,99517.87
2023-06-30T10:06:32.151Z,99525.11
2023-06-30T10:11:37.461Z,99528.83
2023-06-30T10:16:41.434Z,99522.94
2023-06-30T10:21:44.653Z,99515.54
2023-06-30T10:26:48.991Z,99520.78
2023-06-30T10:31:51.961Z,99519.75
2023-06-30T10:36:55.418Z,99515.55
2023-06-30T10:42:01.109Z,99515.91
2023-06-30T10:47:06.657Z,99519.11
2023-06-30T10:52:11.551Z,99513.21
2023-06-30T10:57:24.657Z,99505.02
2023-06-30T11:02:32.561Z,99505.20
2023-06-30T11:07:35.934Z,99506.61
2023-06-30T11:12:53.560Z,99508.16
2023-06-30T11:17:56.731Z,99501.36
2023-06-30T11:23:04.372Z,99504.62
2023-06-30T11:28:10.187Z,99499.35
2023-06-30T11:33:13.254Z,99496.32
2023-06-30T11:38:16.659Z,99490.30
2023-06-30T11:43:23.452Z,99488.79
2023-06-30T11:48:29.597Z,99480.89
2023-06-30T11:53:32.946Z,99472.63
2023-06-30T11:58:36.051Z,99471.98
2023-06-30T12:03:39.219Z,99468.01
2023-06-30T12:08:42.382Z,99462.82
2023-06-30T12:13:48.473Z,99459.13
2023-06-30T12:18:52.074Z,99459.45
2023-06-30T12:23:58.372Z,99458.55
2023-06-30T12:29:06.377Z,99456.64
2023-06-30T12:34:09.634Z,99450.02
2023-06-30T12:39:12.820Z,99442.83
2023-06-30T12:44:16.265Z,99439.39
2023-06-30T12:49:19.458Z,99441.55
2023-06-30T12:54:22.649Z,99442.23
2023-06-30T12:59:25.977Z,99445.23
2023-06-30T13:04:29.280Z,99441.11
2023-06-30T13:09:32.284Z,99433.04
2023-06-30T13:14:35.355Z,99418.82
2023-06-30T13:19:38.397Z,99419.81
2023-06-30T13:24:42.180Z,99420.36
2023-06-30T13:29:52.607Z,99416.80
2023-06-30T13:34:56.154Z,99413.22
2023-06-30T13:39:59.636Z,99405.83
2023-06-30T13:45:02.647Z,99401.00
2023-06-30T13:50:06.370Z,99395.27
2023-06-30T13:55:09.724Z,99391.67
2023-06-30T14:00:13.717Z,99382.30
2023-06-30T14:05:16.964Z,99375.84
2023-06-30T14:10:20.132Z,99364.86
2023-06-30T14:15:23.561Z,99363.73
2023-06-30T14:20:26.761Z,99349.26
2023-06-30T14:25:29.879Z,99346.61
2023-06-30T14:30:35.623Z,99338.81
2023-06-30T14:35:39.099Z,99334.70
2023-06-30T14:40:42.480Z,99331.55
2023-06-30T14:45:46.096Z,99328.70
2023-06-30T14:50:49.989Z,99325.48
2023-06-30T14:55:53.253Z,99315.39
2023-06-30T15:00:56.446Z,99314.09
2023-06-30T15:05:59.558Z,99308.36
2023-06-30T15:11:02.700Z,99302.80
2023-06-30T15:16:06.193Z,99300.40
2023-06-30T15:21:09.406Z,99292.34
2023-06-30T15:26:12.517Z,99283.21
2023-06-30T15:31:15.925Z,99274.92
2023-06-30T15:36:19.078Z,99273.66
2023-06-30T15:41:23.634Z,99271.67
2023-06-30T15:46:26.948Z,99280.81
2023-06-30T15:51:30.104Z,99281.52
2023-06-30T15:56:33.206Z,99280.39
2023-06-30T16:01:36.316Z,99277.73
2023-06-30T16:06:39.628Z,99273.30
2023-06-30T16:11:42.713Z,99271.98
2023-06-30T16:16:46.191Z,99276.80
2023-06-30T16:21:50.271Z,99277.70
2023-06-30T16:26:53.508Z,99284.91
2023-06-30T16:31:56.520Z,99318.60
2023-06-30T16:36:59.927Z,99319.39
2023-06-30T16:42:03.061Z,99344.77
2023-06-30T16:47:06.489Z,99347.98
2023-06-30T16:52:09.763Z,99345.18
2023-06-30T16:57:12.886Z,99339.27
2023-06-30T17:02:16.899Z,99333.58
2023-06-30T17:07:20.016Z,99323.15
2023-06-30T17:12:23.124Z,99326.69
2023-06-30T17:17:26.548Z,99331.17
2023-06-30T17:22:29.751Z,99329.70
2023-06-30T17:27:33.164Z,99329.02
2023-06-30T17:32:36.293Z,99319.65
2023-06-30T17:37:39.486Z,99308.96
2023-06-30T17:42:42.431Z,99311.15
2023-06-30T17:47:45.639Z,99313.04
2023-06-30T17:52:48.713Z,99310.72
2023-06-30T17:57:51.715Z,99305.38
2023-06-30T18:02:54.787Z,99306.62
2023-06-30T18:07:58.749Z,99312.23
2023-06-30T18:13:03.303Z,99313.90
2023-06-30T18:18:06.440Z,99319.17
2023-06-30T18:23:09.720Z,99322.00
2023-06-30T18:28:13.149Z,99325.14
2023-06-30T18:33:16.958Z,99335.46
2023-06-30T18:38:20.060Z,99343.22
2023-06-30T18:43:23.067Z,99345.18
2023-06-30T18:48:26.185Z,99344.57
2023-06-30T18:53:29.288Z,99338.34
2023-06-30T18:58:32.296Z,99338.16
2023-06-30T19:03:35.474Z,99337.45
2023-06-30T19:08:38.927Z,99339.30
2023-06-30T19:13:42.245Z,99339.40
2023-06-30T19:18:45.662Z,99337.58
2023-06-30T19:23:48.881Z,99341.20
2023-06-30T19:28:51.985Z,99335.12
2023-06-30T19:33:55.404Z,99331.64
2023-06-30T19:38:58.459Z,99336.80
2023-06-30T19:44:01.623Z,99330.96
2023-06-30T19:49:04.929Z,99330.77
2023-06-30T19:54:08.347Z,99323.89
2023-06-30T19:59:11.638Z,99321.48
2023-06-30T20:04:14.951Z,99320.97
2023-06-30T20:09:19.321Z,99307.85
2023-06-30T20:14:22.524Z,99290.00
2023-06-30T20:19:25.541Z,99288.36
2023-06-30T20:24:28.694Z,99292.65
2023-06-30T20:29:31.957Z,99289.25
2023-06-30T20:34:35.071Z,99295.45
2023-06-30T20:39:39.818Z,99306.17
2023-06-30T20:44:43.245Z,99316.31
2023-06-30T20:49:46.476Z,99323.13
2023-06-30T20:54:49.754Z,99325.88
2023-06-30T20:59:52.759Z,99335.45
2023-06-30T21:04:59.006Z,99332.88
2023-06-30T21:10:02.252Z,99313.28
2023-06-30T21:15:06.071Z,99311.25
2023-06-30T21:20:10.087Z,99333.45
2023-06-30T21:25:13.247Z,99339.33
2023-06-30T21:30:16.545Z,99342.84
2023-06-30T21:35:19.741Z,99340.25
2023-06-30T21:40:22.906Z,99341.33
2023-06-30T21:45:26.070Z,99344.23
2023-06-30T21:50:29.293Z,99347.94
2023-06-30T21:55:32.734Z,99344.38
2023-06-30T22:00:36.313Z,99344.96
2023-06-30T22:05:39.424Z,99345.38
2023-06-30T22:10:42.438Z,99350.58
2023-06-30T22:15:45.656Z,99353.36
2023-06-30T22:20:49.042Z,99345.39
2023-06-30T22:25:52.477Z,99347.95
2023-06-30T22:30:55.599Z,99349.64
2023-06-30T22:35:58.695Z,99347.10
2023-06-30T22:41:02.252Z,99340.59
2023-06-30T22:46:05.319Z,99335.33
2023-06-30T22:51:08.323Z,99333.88
2023-06-30T22:56:11.437Z,99333.75
2023-06-30T23:01:14.591Z,99340.24
2023-06-30T23:06:17.654Z,99344.35
2023-06-30T23:11:20.869Z,99340.67
2023-06-30T23:16:24.381Z,99340.28
2023-06-30T23:21:29.134Z,99348.92
2023-06-30T23:26:36.417Z,99343.59
2023-06-30T23:31:40.429Z,99342.31
2023-06-30T23:36:43.575Z,99344.98
2023-06-30T23:41:46.580Z,99347.73
2023-06-30T23:46:49.759Z,99346.39
2023-06-30T23:51:53.107Z,99348.96
2023-06-30T23:56:56.221Z,99348.66
